»·PEaware :: N64FB KMCC-KSMO

N64FB :: KMCC-KSMO

FLIGHT INFORMATION

Flight Status: Arrived
Operator: Privately registered:
United States
More flights under this callsign
Pilot: Timothy L. (25392)
Aircraft: BEECH AIRCRAFT SUPER KING AIR 350
(B350)
More flights by this aircraft type
Origin: KMCC McClellan
United States
Destination: KSMO Santa Monica Mun
United States
More flights between these airports :: More routes between these airports
Route: +SAC V23 CZQ PONDD TAFTO FIM FERN7
File this flight plan on PilotEdge
Remarks:
Altitude:
(Current/Filed)
29,000ft
Speed:
(Current/Filed)
290kts
Departed: 25-Aug-19 08:56 AM
Arrived: 25-Aug-19 10:11 AM
Distance/Time
Traveled:
313nm/1:15
Distance/Time
To Go:
Arrived

Flight Plot

Page will automatically refresh every two minutes.

Flight plan parsing failed; only flown route is shown


Map Options




Map Legend


Flown Route
Filed Route
Departure Airport
Arrival Airport
Navaid (VOR, NDB)
Fix

Horizontal Profiles

Position Reports

Time Latitude Longitude Heading Altitude Ground
Speed
25-Aug-19 08:37 38.660605 -121.393422 178 79ft 0kts
25-Aug-19 08:38 38.660605 -121.393422 178 79ft 0kts
25-Aug-19 08:39 38.660605 -121.393422 178 79ft 0kts
25-Aug-19 08:40 38.660605 -121.393422 178 79ft 0kts
25-Aug-19 08:41 38.660605 -121.393422 178 79ft 0kts
25-Aug-19 08:42 38.660605 -121.393422 178 79ft 0kts
25-Aug-19 08:43 38.660605 -121.393422 178 79ft 0kts
25-Aug-19 08:44 38.660605 -121.393422 178 79ft 0kts
25-Aug-19 08:45 38.660605 -121.393422 178 79ft 0kts
25-Aug-19 08:46 38.660605 -121.393422 178 79ft 0kts
25-Aug-19 08:47 38.660605 -121.393422 178 79ft 0kts
25-Aug-19 08:48 38.659480 -121.396420 258 77ft 14kts
25-Aug-19 08:49 38.664558 -121.397864 0 73ft 27kts
25-Aug-19 08:50 38.672123 -121.397820 358 76ft 29kts
25-Aug-19 08:51 38.679333 -121.397830 0 79ft 18kts
25-Aug-19 08:52 38.682045 -121.399447 272 78ft 0kts
25-Aug-19 08:53 38.682045 -121.399447 272 78ft 0kts
25-Aug-19 08:54 38.682045 -121.399447 272 78ft 0kts
25-Aug-19 08:55 38.680021 -121.400593 180 77ft 55kts
25-Aug-19 08:56 38.644525 -121.399854 180 1534ft 157kts
25-Aug-19 08:57 38.599122 -121.396838 177 3605ft 165kts
25-Aug-19 08:58 38.553328 -121.393872 177 5650ft 167kts
25-Aug-19 08:59 38.504687 -121.391049 178 7309ft 182kts
25-Aug-19 09:00 38.454293 -121.387155 178 9012ft 183kts
25-Aug-19 09:01 38.403138 -121.382710 178 10556ft 187kts
25-Aug-19 09:02 38.351154 -121.378365 178 12202ft 189kts
25-Aug-19 09:03 38.306718 -121.345361 140 13696ft 197kts
25-Aug-19 09:04 38.265322 -121.299395 140 15236ft 199kts
25-Aug-19 09:05 38.223310 -121.253111 140 16655ft 202kts
25-Aug-19 09:06 38.180522 -121.206058 139 18009ft 206kts
25-Aug-19 09:07 38.137147 -121.158429 139 19429ft 207kts
25-Aug-19 09:08 38.093317 -121.110377 139 20771ft 210kts
25-Aug-19 09:09 38.048886 -121.061749 139 22039ft 212kts
25-Aug-19 09:10 38.003905 -121.012600 139 23320ft 215kts
25-Aug-19 09:11 37.959253 -120.963896 138 24793ft 213kts
25-Aug-19 09:12 37.913934 -120.914532 138 26135ft 217kts
25-Aug-19 09:13 37.870059 -120.866830 138 27304ft 220kts
25-Aug-19 09:14 37.822987 -120.815748 138 28435ft 226kts
25-Aug-19 09:15 37.774017 -120.762701 138 29056ft 246kts
25-Aug-19 09:16 37.719507 -120.703785 138 29044ft 268kts
25-Aug-19 09:17 37.661142 -120.640822 138 29041ft 284kts
25-Aug-19 09:18 37.599613 -120.574590 138 29040ft 297kts
25-Aug-19 09:19 37.535591 -120.505821 138 29040ft 308kts
25-Aug-19 09:20 37.469759 -120.435278 138 29038ft 315kts
25-Aug-19 09:21 37.402420 -120.363292 138 29038ft 320kts
25-Aug-19 09:22 37.334170 -120.290511 139 29036ft 322kts
25-Aug-19 09:23 37.265673 -120.217645 139 29045ft 323kts
25-Aug-19 09:24 37.197164 -120.144947 139 29081ft 323kts
25-Aug-19 09:25 37.128439 -120.072200 138 29072ft 324kts
25-Aug-19 09:26 37.059566 -119.999471 138 29063ft 324kts
25-Aug-19 09:27 36.990591 -119.926815 138 29065ft 326kts
25-Aug-19 09:28 36.921141 -119.853839 138 29065ft 326kts
25-Aug-19 09:29 36.844565 -119.794611 155 29057ft 328kts
25-Aug-19 09:30 36.760587 -119.750574 155 29062ft 327kts
25-Aug-19 09:31 36.676661 -119.706851 155 29062ft 327kts
25-Aug-19 09:32 36.593160 -119.663458 155 29062ft 326kts
25-Aug-19 09:33 36.509275 -119.619968 155 29062ft 326kts
25-Aug-19 09:34 36.425700 -119.576740 155 29062ft 326kts
25-Aug-19 09:35 36.342268 -119.533687 155 29062ft 325kts
25-Aug-19 09:36 36.258994 -119.490815 155 29062ft 325kts
25-Aug-19 09:38 36.175521 -119.447940 155 29062ft 325kts
25-Aug-19 09:39 36.092216 -119.405251 155 29062ft 325kts
25-Aug-19 09:40 36.008933 -119.362669 155 29062ft 325kts
25-Aug-19 09:41 35.925461 -119.320100 155 29064ft 324kts
25-Aug-19 09:42 35.850748 -119.282071 155 29063ft 324kts
25-Aug-19 09:43 35.761343 -119.273929 181 29065ft 328kts
25-Aug-19 09:44 35.670381 -119.281630 182 29063ft 328kts
25-Aug-19 09:45 35.579340 -119.289446 181 29064ft 328kts
25-Aug-19 09:46 35.488246 -119.297247 181 29069ft 328kts
25-Aug-19 09:47 35.397479 -119.305004 181 29095ft 328kts
25-Aug-19 09:48 35.306720 -119.312747 181 29110ft 327kts
25-Aug-19 09:49 35.215975 -119.320472 181 29110ft 328kts
25-Aug-19 09:50 35.128027 -119.308473 153 29128ft 318kts
25-Aug-19 09:51 35.046845 -119.263456 152 28564ft 335kts
25-Aug-19 09:52 34.961517 -119.215863 152 26870ft 337kts
25-Aug-19 09:53 34.887297 -119.174433 152 25041ft 335kts
25-Aug-19 09:54 34.812045 -119.132578 153 23175ft 333kts
25-Aug-19 09:54 34.742014 -119.093733 153 21443ft 333kts
25-Aug-19 09:56 34.643430 -119.039157 153 19012ft 335kts
25-Aug-19 09:57 34.559347 -118.992738 153 16322ft 328kts
25-Aug-19 09:57 34.492188 -118.955727 154 13649ft 308kts
25-Aug-19 09:59 34.423373 -118.882176 122 10748ft 288kts
25-Aug-19 10:00 34.380779 -118.799800 122 8801ft 289kts
25-Aug-19 10:00 34.345026 -118.731074 122 6876ft 287kts
25-Aug-19 10:01 34.303710 -118.652085 122 5297ft 272kts
25-Aug-19 10:03 34.256546 -118.561996 122 4998ft 273kts
25-Aug-19 10:03 34.222653 -118.497309 122 4999ft 273kts
25-Aug-19 10:04 34.183207 -118.421960 121 4982ft 243kts
25-Aug-19 10:05 34.143784 -118.364082 151 4335ft 211kts
25-Aug-19 10:06 34.096008 -118.356057 213 2998ft 163kts
25-Aug-19 10:07 34.065850 -118.392567 223 1741ft 144kts
25-Aug-19 10:08 34.039167 -118.423757 223 877ft 129kts
25-Aug-19 10:09 34.016428 -118.450588 224 146ft 68kts
25-Aug-19 10:10 34.014012 -118.454600 43 134ft 7kts
25-Aug-19 10:11 34.016441 -118.451694 43 146ft 20kts
25-Aug-19 10:12 34.018404 -118.449720 133 159ft 0kts
25-Aug-19 10:13 34.018403 -118.449718 133 159ft 0kts
25-Aug-19 10:14 34.018403 -118.449718 133 159ft 0kts
25-Aug-19 10:15 34.018403 -118.449718 133 159ft 0kts
25-Aug-19 10:16 34.018403 -118.449718 133 159ft 0kts
25-Aug-19 10:17 34.018403 -118.449718 133 159ft 0kts
25-Aug-19 10:18 34.018403 -118.449718 133 159ft 0kts
25-Aug-19 10:19 34.018403 -118.449718 133 159ft 0kts
25-Aug-19 10:20 34.018403 -118.449718 133 159ft 0kts
25-Aug-19 10:21 34.018403 -118.449718 133 159ft 0kts
25-Aug-19 10:22 34.018403 -118.449718 133 159ft 0kts
25-Aug-19 10:23 34.018403 -118.449718 133 159ft 0kts
25-Aug-19 10:24 34.018403 -118.449718 133 159ft 0kts
25-Aug-19 10:25 34.018403 -118.449718 133 159ft 0kts

Navigation Log

Ident Type
Flight plan parsing failed, navigation log unavailable